TimeCDT,TemperatureF,Dew PointF,Humidity,Sea Level PressureIn,VisibilityMPH,Wind Direction,Wind SpeedMPH,Gust SpeedMPH,PrecipitationIn,Events,Conditions,WindDirDegrees,DateUTC
12:15 AM,77.4,66.6,69,29.79,10.0,SSE,8.1,-,N/A,,Clear,150,2013-05-17 05:15:00
12:35 AM,77.0,66.6,70,29.79,10.0,SSE,6.9,-,N/A,,Clear,150,2013-05-17 05:35:00
12:55 AM,76.5,66.7,72,29.79,10.0,SSE,6.9,-,N/A,,Clear,150,2013-05-17 05:55:00
1:15 AM,75.9,67.1,74,29.79,10.0,SSE,8.1,-,N/A,,Clear,150,2013-05-17 06:15:00
1:35 AM,75.7,67.5,75,29.79,10.0,SSE,8.1,-,N/A,,Clear,160,2013-05-17 06:35:00
1:55 AM,75.2,68.0,78,29.79,10.0,SSE,9.2,-,N/A,,Clear,160,2013-05-17 06:55:00
2:15 AM,74.5,68.2,81,29.78,10.0,SSE,8.1,-,N/A,,Clear,160,2013-05-17 07:15:00
2:35 AM,74.3,68.5,82,29.78,10.0,SSE,8.1,-,N/A,,Clear,160,2013-05-17 07:35:00
2:55 AM,73.8,68.7,84,29.78,10.0,South,8.1,-,N/A,,Clear,170,2013-05-17 07:55:00
3:15 AM,73.4,68.9,86,29.78,10.0,SSE,5.8,-,N/A,,Clear,160,2013-05-17 08:15:00
3:35 AM,72.9,68.9,87,29.79,7.0,SSE,5.8,-,N/A,,Clear,160,2013-05-17 08:35:00
3:55 AM,72.0,68.9,90,29.79,7.0,South,4.6,-,N/A,,Clear,170,2013-05-17 08:55:00
4:15 AM,71.8,68.9,91,29.79,7.0,South,4.6,-,N/A,,Clear,180,2013-05-17 09:15:00
4:35 AM,71.6,68.9,91,29.80,5.0,South,3.5,-,N/A,,Clear,180,2013-05-17 09:35:00
4:55 AM,70.9,68.5,92,29.80,5.0,Calm,Calm,-,N/A,,Clear,0,2013-05-17 09:55:00
5:15 AM,70.7,68.4,92,29.80,5.0,Calm,Calm,-,N/A,,Clear,0,2013-05-17 10:15:00
5:35 AM,70.2,68.2,93,29.80,1.5,Calm,Calm,-,N/A,,Mist,0,2013-05-17 10:35:00
5:55 AM,69.8,68.0,94,29.80,0.8,Calm,Calm,-,N/A,,Mostly Cloudy,0,2013-05-17 10:55:00
6:15 AM,69.4,67.6,94,29.81,0.2,Calm,Calm,-,N/A,Fog,Fog,0,2013-05-17 11:15:00
6:35 AM,68.9,67.1,94,29.81,0.2,Calm,Calm,-,N/A,Fog,Fog,0,2013-05-17 11:35:00
6:55 AM,68.0,66.2,94,29.82,0.2,Calm,Calm,-,N/A,Fog,Fog,0,2013-05-17 11:55:00
7:15 AM,68.0,66.4,95,29.83,0.2,Calm,Calm,-,N/A,Fog,Fog,0,2013-05-17 12:15:00
7:35 AM,69.3,67.6,95,29.83,0.8,Calm,Calm,-,N/A,,Overcast,0,2013-05-17 12:35:00
7:55 AM,71.6,69.8,94,29.84,2.5,South,3.5,-,N/A,,Clear,190,2013-05-17 12:55:00
8:15 AM,72.5,70.9,95,29.84,4.0,South,4.6,-,N/A,,Scattered Clouds,170,2013-05-17 13:15:00
8:35 AM,74.7,70.7,87,29.85,5.0,South,4.6,-,N/A,,Clear,180,2013-05-17 13:35:00
8:55 AM,76.6,70.3,81,29.84,7.0,South,6.9,-,N/A,,Scattered Clouds,170,2013-05-17 13:55:00
9:15 AM,78.8,70.2,75,29.85,10.0,South,8.1,-,N/A,,Clear,190,2013-05-17 14:15:00
9:35 AM,80.1,70.2,72,29.85,10.0,South,6.9,-,N/A,,Clear,170,2013-05-17 14:35:00
9:55 AM,81.7,69.1,65,29.86,10.0,SW,5.8,-,N/A,,Clear,220,2013-05-17 14:55:00
10:15 AM,82.4,69.3,64,29.86,10.0,South,6.9,-,N/A,,Clear,190,2013-05-17 15:15:00
10:35 AM,84.0,68.2,59,29.85,10.0,SSW,6.9,-,N/A,,Clear,200,2013-05-17 15:35:00
10:55 AM,85.3,68.5,57,29.86,10.0,South,8.1,-,N/A,,Clear,190,2013-05-17 15:55:00
11:15 AM,86.7,68.5,55,29.85,10.0,South,6.9,-,N/A,,Clear,190,2013-05-17 16:15:00
11:35 AM,88.0,67.8,51,29.85,10.0,SSW,8.1,16.1,N/A,,Clear,200,2013-05-17 16:35:00
11:55 AM,90.1,65.8,44,29.85,10.0,SW,8.1,-,N/A,,Clear,220,2013-05-17 16:55:00
12:15 PM,90.9,64.6,42,29.85,10.0,SSW,11.5,17.3,N/A,,Clear,210,2013-05-17 17:15:00
12:35 PM,92.3,64.6,40,29.84,10.0,SW,11.5,19.6,N/A,,Clear,220,2013-05-17 17:35:00
12:55 PM,94.3,63.5,36,29.84,10.0,SW,11.5,17.3,N/A,,Clear,230,2013-05-17 17:55:00
1:15 PM,96.1,61.2,31,29.83,10.0,South,11.5,19.6,N/A,,Clear,190,2013-05-17 18:15:00
1:35 PM,97.5,59.2,28,29.83,10.0,South,9.2,18.4,N/A,,Clear,180,2013-05-17 18:35:00
1:55 PM,99.7,59.2,26,29.82,10.0,SSW,11.5,-,N/A,,Clear,200,2013-05-17 18:55:00
2:15 PM,99.9,58.6,25,29.81,10.0,South,10.4,16.1,N/A,,Clear,190,2013-05-17 19:15:00
2:35 PM,101.7,56.3,22,29.80,10.0,South,10.4,-,N/A,,Clear,190,2013-05-17 19:35:00
2:55 PM,101.7,54.9,21,29.80,10.0,SSW,8.1,-,N/A,,Clear,200,2013-05-17 19:55:00
3:15 PM,102.6,52.9,19,29.79,10.0,South,10.4,16.1,N/A,,Clear,170,2013-05-17 20:15:00
3:35 PM,103.8,48.9,16,29.78,10.0,SW,5.8,-,N/A,,Clear,220,2013-05-17 20:35:00
3:55 PM,102.7,50.9,18,29.78,10.0,South,12.7,16.1,N/A,,Scattered Clouds,180,2013-05-17 20:55:00
4:15 PM,102.6,49.8,17,29.77,10.0,South,13.8,19.6,N/A,,Scattered Clouds,180,2013-05-17 21:15:00
4:35 PM,103.3,47.5,15,29.77,10.0,South,16.1,25.3,N/A,,Scattered Clouds,170,2013-05-17 21:35:00
4:55 PM,101.3,58.1,24,29.77,10.0,SSE,18.4,27.6,N/A,,Clear,160,2013-05-17 21:55:00
5:15 PM,99.1,53.6,22,29.77,10.0,South,16.1,23.0,N/A,,Clear,170,2013-05-17 22:15:00
5:35 PM,99.1,53.6,22,29.76,10.0,SSE,18.4,21.9,N/A,,Clear,160,2013-05-17 22:35:00
5:55 PM,97.2,53.6,23,29.76,10.0,South,17.3,27.6,N/A,,Clear,170,2013-05-17 22:55:00
6:15 PM,96.4,55.9,26,29.76,10.0,SSE,19.6,28.8,N/A,,Clear,160,2013-05-17 23:15:00
6:35 PM,94.5,55.2,27,29.76,10.0,South,15.0,20.7,N/A,,Clear,170,2013-05-17 23:35:00
6:55 PM,94.3,52.7,24,29.76,10.0,South,15.0,25.3,N/A,,Clear,170,2013-05-17 23:55:00
7:15 PM,91.4,54.3,28,29.77,10.0,South,13.8,21.9,N/A,,Clear,170,2013-05-18 00:15:00
7:35 PM,90.0,56.5,32,29.77,10.0,SSE,18.4,26.5,N/A,,Clear,160,2013-05-18 00:35:00
7:55 PM,88.0,56.7,34,29.77,10.0,South,15.0,21.9,N/A,,Clear,170,2013-05-18 00:55:00
8:15 PM,86.9,55.4,34,29.79,10.0,South,16.1,21.9,N/A,,Clear,170,2013-05-18 01:15:00
8:35 PM,86.0,49.6,28,29.80,10.0,South,13.8,19.6,N/A,,Clear,170,2013-05-18 01:35:00
8:55 PM,84.7,49.1,29,29.80,10.0,South,9.2,-,N/A,,Clear,180,2013-05-18 01:55:00
9:15 PM,84.4,49.8,30,29.81,10.0,South,9.2,-,N/A,,Clear,180,2013-05-18 02:15:00
9:35 PM,84.4,50.5,31,29.83,10.0,South,9.2,-,N/A,,Clear,180,2013-05-18 02:35:00
9:55 PM,83.8,52.2,33,29.83,10.0,South,6.9,-,N/A,,Clear,170,2013-05-18 02:55:00
10:15 PM,84.2,55.9,38,29.84,10.0,South,8.1,-,N/A,,Clear,180,2013-05-18 03:15:00
10:35 PM,84.2,61.0,45,29.85,10.0,South,11.5,16.1,N/A,,Clear,180,2013-05-18 03:35:00
10:55 PM,84.2,64.6,52,29.85,10.0,South,11.5,-,N/A,,Mostly Cloudy,170,2013-05-18 03:55:00
11:15 PM,84.2,66.0,54,29.85,10.0,South,11.5,-,N/A,,Scattered Clouds,180,2013-05-18 04:15:00
11:35 PM,83.7,65.8,55,29.86,10.0,South,9.2,-,N/A,,Clear,170,2013-05-18 04:35:00
11:55 PM,82.8,65.7,56,29.86,10.0,SSE,10.4,-,N/A,,Clear,160,2013-05-18 04:55:00